Estación Meteorológica Peña el Pijo (Robertgarden) [ 04/19/21 04:05:42 CEST ]

Fecha Hora Presion(HPa) Temp (°C) Humedad % Rocio (°C) Viento ( m/s) Direccion Lluvia 1Hora(mm) Lluvia 24H(mm) LLuvia Total(mm)
2021-Apr-07 01:09:34 1003.700 8.9 63 2.2 - N     89.61
2021-Apr-07 02:09:59 1003.700 7.9 69 2.6 - N     89.61
2021-Apr-07 03:10:01 1003.900 7.6 73 3.1 - N     89.61
2021-Apr-07 04:13:53 1003.400 6.9 75 2.8 - N     89.61
2021-Apr-07 05:09:29 1003.500 6.3 77 2.5 - N     89.61
2021-Apr-07 06:09:43 1003.500 6.2 78 2.6 - N     89.61
2021-Apr-07 07:09:49 1003.900 5.9 79 2.5 - N     89.61
2021-Apr-07 08:09:04 1004.200 5.3 78 1.7 - N     89.61
2021-Apr-07 09:09:32 1005.100 15.9 54 6.6 - N     89.61
2021-Apr-07 10:09:40 1005.800 19.6 42 6.3 - N     89.61
2021-Apr-07 11:09:52 1006.200 21.8 38 6.8 - N     89.61
2021-Apr-07 12:09:25 1006.500 21.5 39 6.9 - N     89.61
2021-Apr-07 13:09:16 1007.000 19.4 45 7.1 - N     89.61
2021-Apr-07 14:09:26 1007.300 17.9 50 7.3 - N     89.61
2021-Apr-07 15:09:45 1007.400 16.4 55 7.3 - N     89.61
2021-Apr-07 16:09:45 1007.200 16.2 56 7.4 - N     89.61
2021-Apr-07 17:09:17 1007.400 16.1 57 7.6 - N     89.61
2021-Apr-07 18:09:14 1007.800 13.9 64 7.2 - N     89.61
2021-Apr-07 19:09:12 1008.300 11.9 71 6.8 - N     89.61
2021-Apr-07 20:09:29 1008.900 10.8 77 6.9 - N     89.61
2021-Apr-07 21:09:44 1009.500 9.9 80 6.6 - N     89.61
2021-Apr-07 22:09:19 1010.200 9.6 79 6.1 - N     89.61
2021-Apr-07 23:09:27 1011.100 9.2 79 5.7 - N     89.61

Temperatura Máxima:21°    Temperatura Mínima:
Presión Máxima:1011.100 Hpa    Presión Mínima:1003.400 Hpa


Volver